sensor_id;sensor_type;location;lat;lon;timestamp;P1;durP1;ratioP1;P2;durP2;ratioP2
51489;SDS011;57752;53.574;9.736;2023-11-21T00:03:19;85.38;;;23.05;;
51489;SDS011;57752;53.574;9.736;2023-11-21T00:08:19;95.38;;;26.10;;
51489;SDS011;57752;53.574;9.736;2023-11-21T00:13:19;86.72;;;24.55;;
51489;SDS011;57752;53.574;9.736;2023-11-21T00:18:20;92.00;;;27.10;;
51489;SDS011;57752;53.574;9.736;2023-11-21T00:23:20;89.00;;;23.30;;
51489;SDS011;57752;53.574;9.736;2023-11-21T00:28:20;85.13;;;25.75;;
51489;SDS011;57752;53.574;9.736;2023-11-21T00:33:21;72.40;;;23.23;;
51489;SDS011;57752;53.574;9.736;2023-11-21T00:38:21;76.45;;;24.15;;
51489;SDS011;57752;53.574;9.736;2023-11-21T00:43:24;81.28;;;23.88;;
51489;SDS011;57752;53.574;9.736;2023-11-21T00:48:24;76.35;;;22.20;;
51489;SDS011;57752;53.574;9.736;2023-11-21T00:53:24;71.22;;;22.38;;
51489;SDS011;57752;53.574;9.736;2023-11-21T00:58:24;70.28;;;22.80;;
51489;SDS011;57752;53.574;9.736;2023-11-21T01:03:25;57.20;;;21.58;;
51489;SDS011;57752;53.574;9.736;2023-11-21T01:08:25;63.30;;;21.95;;
51489;SDS011;57752;53.574;9.736;2023-11-21T01:13:25;71.05;;;21.85;;
51489;SDS011;57752;53.574;9.736;2023-11-21T01:18:29;67.90;;;24.05;;
51489;SDS011;57752;53.574;9.736;2023-11-21T01:23:29;65.55;;;21.55;;
51489;SDS011;57752;53.574;9.736;2023-11-21T01:28:29;74.97;;;22.60;;
51489;SDS011;57752;53.574;9.736;2023-11-21T01:33:29;68.30;;;22.35;;
51489;SDS011;57752;53.574;9.736;2023-11-21T01:38:30;80.18;;;23.88;;
51489;SDS011;57752;53.574;9.736;2023-11-21T01:43:30;71.05;;;22.85;;
51489;SDS011;57752;53.574;9.736;2023-11-21T01:48:31;74.60;;;24.70;;
51489;SDS011;57752;53.574;9.736;2023-11-21T01:53:31;65.60;;;20.55;;
51489;SDS011;57752;53.574;9.736;2023-11-21T01:58:32;59.53;;;20.55;;
51489;SDS011;57752;53.574;9.736;2023-11-21T02:03:32;60.58;;;20.13;;
51489;SDS011;57752;53.574;9.736;2023-11-21T02:08:32;53.20;;;19.63;;
51489;SDS011;57752;53.574;9.736;2023-11-21T02:13:32;53.03;;;18.83;;
51489;SDS011;57752;53.574;9.736;2023-11-21T02:18:33;48.17;;;17.48;;
51489;SDS011;57752;53.574;9.736;2023-11-21T02:23:34;40.17;;;16.52;;
51489;SDS011;57752;53.574;9.736;2023-11-21T02:28:34;35.17;;;13.13;;
51489;SDS011;57752;53.574;9.736;2023-11-21T02:33:34;33.25;;;13.77;;
51489;SDS011;57752;53.574;9.736;2023-11-21T02:38:34;30.25;;;12.80;;
51489;SDS011;57752;53.574;9.736;2023-11-21T02:43:35;35.60;;;13.57;;
51489;SDS011;57752;53.574;9.736;2023-11-21T02:48:35;27.73;;;12.38;;
51489;SDS011;57752;53.574;9.736;2023-11-21T02:53:35;27.05;;;11.35;;
51489;SDS011;57752;53.574;9.736;2023-11-21T02:58:41;27.75;;;11.60;;
51489;SDS011;57752;53.574;9.736;2023-11-21T03:03:43;25.77;;;10.52;;
51489;SDS011;57752;53.574;9.736;2023-11-21T03:08:43;26.17;;;10.95;;
51489;SDS011;57752;53.574;9.736;2023-11-21T03:13:43;24.33;;;10.75;;
51489;SDS011;57752;53.574;9.736;2023-11-21T03:18:43;23.58;;;9.82;;
51489;SDS011;57752;53.574;9.736;2023-11-21T03:23:44;23.30;;;9.70;;
51489;SDS011;57752;53.574;9.736;2023-11-21T03:28:44;24.65;;;9.27;;
51489;SDS011;57752;53.574;9.736;2023-11-21T03:33:46;21.67;;;8.88;;
51489;SDS011;57752;53.574;9.736;2023-11-21T03:38:47;23.63;;;10.15;;
51489;SDS011;57752;53.574;9.736;2023-11-21T03:43:48;23.80;;;9.23;;
51489;SDS011;57752;53.574;9.736;2023-11-21T03:48:48;25.25;;;9.55;;
51489;SDS011;57752;53.574;9.736;2023-11-21T03:53:48;24.50;;;9.95;;
51489;SDS011;57752;53.574;9.736;2023-11-21T03:58:48;23.42;;;9.80;;
51489;SDS011;57752;53.574;9.736;2023-11-21T04:03:49;23.35;;;10.05;;
51489;SDS011;57752;53.574;9.736;2023-11-21T04:08:49;24.48;;;10.35;;
51489;SDS011;57752;53.574;9.736;2023-11-21T04:13:50;25.85;;;10.48;;
51489;SDS011;57752;53.574;9.736;2023-11-21T04:18:50;21.88;;;9.90;;
51489;SDS011;57752;53.574;9.736;2023-11-21T04:23:50;21.83;;;9.15;;
51489;SDS011;57752;53.574;9.736;2023-11-21T04:28:51;24.00;;;9.88;;
51489;SDS011;57752;53.574;9.736;2023-11-21T04:33:51;27.30;;;10.95;;
51489;SDS011;57752;53.574;9.736;2023-11-21T04:38:51;26.52;;;11.02;;
51489;SDS011;57752;53.574;9.736;2023-11-21T04:43:51;27.40;;;11.77;;
51489;SDS011;57752;53.574;9.736;2023-11-21T04:48:51;23.90;;;9.98;;
51489;SDS011;57752;53.574;9.736;2023-11-21T04:53:51;24.08;;;11.15;;
51489;SDS011;57752;53.574;9.736;2023-11-21T04:58:52;27.17;;;10.63;;
51489;SDS011;57752;53.574;9.736;2023-11-21T05:03:52;27.45;;;11.00;;
51489;SDS011;57752;53.574;9.736;2023-11-21T05:08:53;25.40;;;10.38;;
51489;SDS011;57752;53.574;9.736;2023-11-21T05:13:53;24.73;;;11.02;;
51489;SDS011;57752;53.574;9.736;2023-11-21T05:18:53;24.93;;;10.90;;
51489;SDS011;57752;53.574;9.736;2023-11-21T05:23:56;25.88;;;10.60;;
51489;SDS011;57752;53.574;9.736;2023-11-21T05:28:56;24.40;;;10.57;;
51489;SDS011;57752;53.574;9.736;2023-11-21T05:33:56;26.30;;;10.05;;
51489;SDS011;57752;53.574;9.736;2023-11-21T05:38:56;25.27;;;10.88;;
51489;SDS011;57752;53.574;9.736;2023-11-21T05:43:57;25.00;;;10.35;;
51489;SDS011;57752;53.574;9.736;2023-11-21T05:48:57;24.60;;;10.70;;
51489;SDS011;57752;53.574;9.736;2023-11-21T05:53:57;23.65;;;10.93;;
51489;SDS011;57752;53.574;9.736;2023-11-21T05:58:57;26.23;;;10.15;;
51489;SDS011;57752;53.574;9.736;2023-11-21T06:03:57;25.70;;;11.23;;
51489;SDS011;57752;53.574;9.736;2023-11-21T06:08:57;29.40;;;11.55;;
51489;SDS011;57752;53.574;9.736;2023-11-21T06:13:57;26.05;;;10.55;;
51489;SDS011;57752;53.574;9.736;2023-11-21T06:18:58;27.30;;;10.88;;
51489;SDS011;57752;53.574;9.736;2023-11-21T06:23:58;26.05;;;10.45;;
51489;SDS011;57752;53.574;9.736;2023-11-21T06:28:58;25.15;;;11.40;;
51489;SDS011;57752;53.574;9.736;2023-11-21T06:33:58;26.90;;;11.25;;
51489;SDS011;57752;53.574;9.736;2023-11-21T06:38:59;25.02;;;11.05;;
51489;SDS011;57752;53.574;9.736;2023-11-21T06:43:59;25.90;;;10.85;;
51489;SDS011;57752;53.574;9.736;2023-11-21T06:49:00;27.15;;;11.75;;
51489;SDS011;57752;53.574;9.736;2023-11-21T06:54:00;27.88;;;12.00;;
51489;SDS011;57752;53.574;9.736;2023-11-21T06:59:00;26.70;;;10.82;;
51489;SDS011;57752;53.574;9.736;2023-11-21T07:04:00;27.08;;;11.45;;
51489;SDS011;57752;53.574;9.736;2023-11-21T07:09:00;26.63;;;10.07;;
51489;SDS011;57752;53.574;9.736;2023-11-21T07:14:01;24.75;;;11.60;;
51489;SDS011;57752;53.574;9.736;2023-11-21T07:19:07;28.45;;;11.35;;
51489;SDS011;57752;53.574;9.736;2023-11-21T07:24:07;26.75;;;11.40;;
51489;SDS011;57752;53.574;9.736;2023-11-21T07:29:08;26.63;;;11.63;;
51489;SDS011;57752;53.574;9.736;2023-11-21T07:34:08;29.88;;;11.52;;
51489;SDS011;57752;53.574;9.736;2023-11-21T07:39:09;26.80;;;11.32;;
51489;SDS011;57752;53.574;9.736;2023-11-21T07:44:10;28.77;;;11.27;;
51489;SDS011;57752;53.574;9.736;2023-11-21T07:49:10;23.88;;;10.82;;
51489;SDS011;57752;53.574;9.736;2023-11-21T07:54:11;24.83;;;10.73;;
51489;SDS011;57752;53.574;9.736;2023-11-21T07:59:11;22.42;;;9.98;;
51489;SDS011;57752;53.574;9.736;2023-11-21T08:04:12;25.23;;;9.65;;
51489;SDS011;57752;53.574;9.736;2023-11-21T08:09:12;25.33;;;11.23;;
51489;SDS011;57752;53.574;9.736;2023-11-21T08:14:13;22.80;;;9.65;;
51489;SDS011;57752;53.574;9.736;2023-11-21T08:19:13;24.38;;;10.25;;
51489;SDS011;57752;53.574;9.736;2023-11-21T08:24:13;25.33;;;10.38;;
51489;SDS011;57752;53.574;9.736;2023-11-21T08:29:13;24.08;;;10.13;;
51489;SDS011;57752;53.574;9.736;2023-11-21T08:34:13;23.45;;;11.32;;
51489;SDS011;57752;53.574;9.736;2023-11-21T08:39:15;28.25;;;11.43;;
51489;SDS011;57752;53.574;9.736;2023-11-21T08:44:16;29.88;;;12.25;;
51489;SDS011;57752;53.574;9.736;2023-11-21T08:49:18;24.48;;;10.52;;
51489;SDS011;57752;53.574;9.736;2023-11-21T08:54:18;23.48;;;10.50;;
51489;SDS011;57752;53.574;9.736;2023-11-21T08:59:18;24.08;;;10.35;;
51489;SDS011;57752;53.574;9.736;2023-11-21T09:04:20;24.67;;;10.18;;
51489;SDS011;57752;53.574;9.736;2023-11-21T09:09:20;21.25;;;8.57;;
51489;SDS011;57752;53.574;9.736;2023-11-21T09:14:20;19.25;;;8.07;;
51489;SDS011;57752;53.574;9.736;2023-11-21T09:19:20;19.42;;;8.15;;
51489;SDS011;57752;53.574;9.736;2023-11-21T09:24:21;18.15;;;7.63;;
51489;SDS011;57752;53.574;9.736;2023-11-21T09:29:21;20.55;;;7.68;;
51489;SDS011;57752;53.574;9.736;2023-11-21T09:34:22;16.98;;;6.80;;
51489;SDS011;57752;53.574;9.736;2023-11-21T09:39:22;17.35;;;6.55;;
51489;SDS011;57752;53.574;9.736;2023-11-21T09:44:23;16.25;;;5.90;;
51489;SDS011;57752;53.574;9.736;2023-11-21T09:49:26;15.65;;;5.97;;
51489;SDS011;57752;53.574;9.736;2023-11-21T09:54:26;13.68;;;5.15;;
51489;SDS011;57752;53.574;9.736;2023-11-21T09:59:30;13.77;;;4.95;;
51489;SDS011;57752;53.574;9.736;2023-11-21T10:04:30;11.95;;;4.45;;
51489;SDS011;57752;53.574;9.736;2023-11-21T10:09:31;12.23;;;4.97;;
51489;SDS011;57752;53.574;9.736;2023-11-21T10:14:32;12.27;;;4.50;;
51489;SDS011;57752;53.574;9.736;2023-11-21T10:19:33;11.18;;;4.57;;
51489;SDS011;57752;53.574;9.736;2023-11-21T10:24:33;11.43;;;4.35;;
51489;SDS011;57752;53.574;9.736;2023-11-21T10:29:33;10.38;;;4.32;;
51489;SDS011;57752;53.574;9.736;2023-11-21T10:34:35;12.97;;;4.73;;
51489;SDS011;57752;53.574;9.736;2023-11-21T10:39:35;11.75;;;4.53;;
51489;SDS011;57752;53.574;9.736;2023-11-21T10:44:35;13.07;;;4.80;;
51489;SDS011;57752;53.574;9.736;2023-11-21T10:49:36;10.80;;;4.00;;
51489;SDS011;57752;53.574;9.736;2023-11-21T10:54:37;11.23;;;3.72;;
51489;SDS011;57752;53.574;9.736;2023-11-21T10:59:37;10.73;;;3.92;;
51489;SDS011;57752;53.574;9.736;2023-11-21T11:04:38;13.00;;;4.22;;
51489;SDS011;57752;53.574;9.736;2023-11-21T11:09:39;11.73;;;4.68;;
51489;SDS011;57752;53.574;9.736;2023-11-21T11:14:42;11.68;;;4.88;;
51489;SDS011;57752;53.574;9.736;2023-11-21T11:19:44;10.63;;;4.15;;
51489;SDS011;57752;53.574;9.736;2023-11-21T11:25:03;12.63;;;4.55;;
51489;SDS011;57752;53.574;9.736;2023-11-21T11:30:10;10.50;;;3.80;;
51489;SDS011;57752;53.574;9.736;2023-11-21T11:35:16;12.70;;;3.53;;
51489;SDS011;57752;53.574;9.736;2023-11-21T11:40:17;11.13;;;4.30;;
51489;SDS011;57752;53.574;9.736;2023-11-21T11:45:19;11.15;;;3.83;;
51489;SDS011;57752;53.574;9.736;2023-11-21T11:50:19;9.93;;;3.67;;
51489;SDS011;57752;53.574;9.736;2023-11-21T11:55:20;11.98;;;4.32;;
51489;SDS011;57752;53.574;9.736;2023-11-21T12:00:33;10.35;;;4.05;;
51489;SDS011;57752;53.574;9.736;2023-11-21T12:05:37;10.25;;;3.72;;
51489;SDS011;57752;53.574;9.736;2023-11-21T12:10:42;10.35;;;3.65;;
51489;SDS011;57752;53.574;9.736;2023-11-21T12:15:42;14.50;;;3.60;;
51489;SDS011;57752;53.574;9.736;2023-11-21T12:20:43;11.50;;;3.90;;
51489;SDS011;57752;53.574;9.736;2023-11-21T12:25:46;10.40;;;3.78;;
51489;SDS011;57752;53.574;9.736;2023-11-21T12:30:47;9.48;;;3.35;;
51489;SDS011;57752;53.574;9.736;2023-11-21T12:35:47;11.25;;;3.90;;
51489;SDS011;57752;53.574;9.736;2023-11-21T12:40:47;10.17;;;3.50;;
51489;SDS011;57752;53.574;9.736;2023-11-21T12:45:47;10.52;;;3.78;;
51489;SDS011;57752;53.574;9.736;2023-11-21T12:50:48;9.55;;;3.70;;
51489;SDS011;57752;53.574;9.736;2023-11-21T12:55:55;10.73;;;3.88;;
51489;SDS011;57752;53.574;9.736;2023-11-21T13:00:55;11.50;;;4.30;;
51489;SDS011;57752;53.574;9.736;2023-11-21T13:05:57;12.27;;;4.35;;
51489;SDS011;57752;53.574;9.736;2023-11-21T13:10:58;13.82;;;4.90;;
51489;SDS011;57752;53.574;9.736;2023-11-21T13:16:00;14.77;;;4.78;;
51489;SDS011;57752;53.574;9.736;2023-11-21T13:21:01;12.73;;;5.00;;
51489;SDS011;57752;53.574;9.736;2023-11-21T13:26:03;12.15;;;3.85;;
51489;SDS011;57752;53.574;9.736;2023-11-21T13:31:05;10.48;;;4.10;;
51489;SDS011;57752;53.574;9.736;2023-11-21T13:36:24;12.50;;;4.28;;
51489;SDS011;57752;53.574;9.736;2023-11-21T13:41:24;12.98;;;5.03;;
51489;SDS011;57752;53.574;9.736;2023-11-21T13:46:30;12.68;;;5.22;;
51489;SDS011;57752;53.574;9.736;2023-11-21T13:51:36;12.10;;;4.68;;
51489;SDS011;57752;53.574;9.736;2023-11-21T13:56:48;12.55;;;4.72;;
51489;SDS011;57752;53.574;9.736;2023-11-21T14:01:50;12.55;;;4.43;;
51489;SDS011;57752;53.574;9.736;2023-11-21T14:06:59;14.88;;;4.97;;
51489;SDS011;57752;53.574;9.736;2023-11-21T14:12:10;11.80;;;4.57;;
51489;SDS011;57752;53.574;9.736;2023-11-21T14:17:13;12.48;;;4.90;;
51489;SDS011;57752;53.574;9.736;2023-11-21T14:22:13;14.68;;;5.45;;
51489;SDS011;57752;53.574;9.736;2023-11-21T14:27:13;12.32;;;4.90;;
51489;SDS011;57752;53.574;9.736;2023-11-21T14:32:14;13.40;;;4.90;;
51489;SDS011;57752;53.574;9.736;2023-11-21T14:37:16;14.02;;;5.18;;
51489;SDS011;57752;53.574;9.736;2023-11-21T14:42:16;13.07;;;5.07;;
51489;SDS011;57752;53.574;9.736;2023-11-21T14:47:21;15.23;;;5.82;;
51489;SDS011;57752;53.574;9.736;2023-11-21T14:52:26;16.52;;;5.60;;
51489;SDS011;57752;53.574;9.736;2023-11-21T14:57:37;13.90;;;5.40;;
51489;SDS011;57752;53.574;9.736;2023-11-21T15:02:38;13.75;;;5.20;;
51489;SDS011;57752;53.574;9.736;2023-11-21T15:07:50;12.82;;;4.15;;
51489;SDS011;57752;53.574;9.736;2023-11-21T15:12:55;13.95;;;4.55;;
51489;SDS011;57752;53.574;9.736;2023-11-21T15:17:56;12.23;;;4.28;;
51489;SDS011;57752;53.574;9.736;2023-11-21T15:22:56;13.52;;;4.50;;
51489;SDS011;57752;53.574;9.736;2023-11-21T15:27:56;12.68;;;4.30;;
51489;SDS011;57752;53.574;9.736;2023-11-21T15:32:57;12.75;;;4.45;;
51489;SDS011;57752;53.574;9.736;2023-11-21T15:37:57;11.95;;;4.45;;
51489;SDS011;57752;53.574;9.736;2023-11-21T15:42:58;11.82;;;4.20;;
51489;SDS011;57752;53.574;9.736;2023-11-21T15:47:59;10.88;;;4.20;;
51489;SDS011;57752;53.574;9.736;2023-11-21T15:53:00;12.70;;;4.28;;
51489;SDS011;57752;53.574;9.736;2023-11-21T15:58:03;12.20;;;4.68;;
51489;SDS011;57752;53.574;9.736;2023-11-21T16:03:04;15.10;;;5.03;;
51489;SDS011;57752;53.574;9.736;2023-11-21T16:08:05;12.63;;;4.43;;
51489;SDS011;57752;53.574;9.736;2023-11-21T16:13:05;14.68;;;5.03;;
51489;SDS011;57752;53.574;9.736;2023-11-21T16:18:05;12.25;;;4.75;;
51489;SDS011;57752;53.574;9.736;2023-11-21T16:23:06;15.65;;;5.35;;
51489;SDS011;57752;53.574;9.736;2023-11-21T16:28:07;13.15;;;5.05;;
51489;SDS011;57752;53.574;9.736;2023-11-21T16:33:08;14.18;;;4.90;;
51489;SDS011;57752;53.574;9.736;2023-11-21T16:38:08;13.73;;;5.50;;
51489;SDS011;57752;53.574;9.736;2023-11-21T16:43:09;16.42;;;6.03;;
51489;SDS011;57752;53.574;9.736;2023-11-21T16:48:09;17.20;;;6.25;;
51489;SDS011;57752;53.574;9.736;2023-11-21T16:53:10;16.33;;;6.07;;
51489;SDS011;57752;53.574;9.736;2023-11-21T16:58:10;19.38;;;6.03;;
51489;SDS011;57752;53.574;9.736;2023-11-21T17:03:10;13.70;;;5.53;;
51489;SDS011;57752;53.574;9.736;2023-11-21T17:08:10;16.60;;;5.90;;
51489;SDS011;57752;53.574;9.736;2023-11-21T17:13:11;16.73;;;5.80;;
51489;SDS011;57752;53.574;9.736;2023-11-21T17:18:11;20.45;;;6.85;;
51489;SDS011;57752;53.574;9.736;2023-11-21T17:23:11;18.50;;;7.68;;
51489;SDS011;57752;53.574;9.736;2023-11-21T17:28:12;19.83;;;7.80;;
51489;SDS011;57752;53.574;9.736;2023-11-21T17:33:12;20.40;;;7.80;;
51489;SDS011;57752;53.574;9.736;2023-11-21T17:38:12;21.35;;;7.47;;
51489;SDS011;57752;53.574;9.736;2023-11-21T17:43:12;22.45;;;8.60;;
51489;SDS011;57752;53.574;9.736;2023-11-21T17:48:12;20.02;;;7.50;;
51489;SDS011;57752;53.574;9.736;2023-11-21T17:53:13;18.92;;;7.50;;
51489;SDS011;57752;53.574;9.736;2023-11-21T17:58:13;19.75;;;7.72;;
51489;SDS011;57752;53.574;9.736;2023-11-21T18:03:13;19.40;;;7.63;;
51489;SDS011;57752;53.574;9.736;2023-11-21T18:08:13;17.17;;;6.70;;
51489;SDS011;57752;53.574;9.736;2023-11-21T18:13:14;19.35;;;7.18;;
51489;SDS011;57752;53.574;9.736;2023-11-21T18:18:14;29.13;;;7.30;;
51489;SDS011;57752;53.574;9.736;2023-11-21T18:23:14;17.98;;;6.85;;
51489;SDS011;57752;53.574;9.736;2023-11-21T18:28:15;20.83;;;7.45;;
51489;SDS011;57752;53.574;9.736;2023-11-21T18:33:15;23.35;;;7.47;;
51489;SDS011;57752;53.574;9.736;2023-11-21T18:38:15;18.98;;;8.05;;
51489;SDS011;57752;53.574;9.736;2023-11-21T18:43:15;19.02;;;7.30;;
51489;SDS011;57752;53.574;9.736;2023-11-21T18:48:15;24.10;;;8.40;;
51489;SDS011;57752;53.574;9.736;2023-11-21T18:53:15;22.88;;;8.88;;
51489;SDS011;57752;53.574;9.736;2023-11-21T18:58:16;24.02;;;10.00;;
51489;SDS011;57752;53.574;9.736;2023-11-21T19:03:16;26.10;;;10.57;;
51489;SDS011;57752;53.574;9.736;2023-11-21T19:08:16;25.85;;;10.45;;
51489;SDS011;57752;53.574;9.736;2023-11-21T19:13:16;27.60;;;11.50;;
51489;SDS011;57752;53.574;9.736;2023-11-21T19:18:18;24.40;;;10.25;;
51489;SDS011;57752;53.574;9.736;2023-11-21T19:23:18;24.83;;;10.00;;
51489;SDS011;57752;53.574;9.736;2023-11-21T19:28:20;24.08;;;9.25;;
51489;SDS011;57752;53.574;9.736;2023-11-21T19:33:20;24.10;;;9.77;;
51489;SDS011;57752;53.574;9.736;2023-11-21T19:38:20;23.85;;;9.90;;
51489;SDS011;57752;53.574;9.736;2023-11-21T19:43:21;27.73;;;9.95;;
51489;SDS011;57752;53.574;9.736;2023-11-21T19:48:21;25.63;;;9.75;;
51489;SDS011;57752;53.574;9.736;2023-11-21T19:53:23;23.90;;;8.95;;
51489;SDS011;57752;53.574;9.736;2023-11-21T19:58:23;21.92;;;8.35;;
51489;SDS011;57752;53.574;9.736;2023-11-21T20:03:24;19.40;;;7.35;;
51489;SDS011;57752;53.574;9.736;2023-11-21T20:08:24;20.00;;;8.27;;
51489;SDS011;57752;53.574;9.736;2023-11-21T20:13:25;19.10;;;7.72;;
51489;SDS011;57752;53.574;9.736;2023-11-21T20:18:25;21.80;;;8.20;;
51489;SDS011;57752;53.574;9.736;2023-11-21T20:23:26;20.15;;;6.95;;
51489;SDS011;57752;53.574;9.736;2023-11-21T20:28:26;17.92;;;6.57;;
51489;SDS011;57752;53.574;9.736;2023-11-21T20:33:26;18.02;;;7.43;;
51489;SDS011;57752;53.574;9.736;2023-11-21T20:38:27;19.33;;;7.38;;
51489;SDS011;57752;53.574;9.736;2023-11-21T20:43:27;21.65;;;7.93;;
51489;SDS011;57752;53.574;9.736;2023-11-21T20:48:27;16.90;;;7.32;;
51489;SDS011;57752;53.574;9.736;2023-11-21T20:53:29;20.00;;;7.97;;
51489;SDS011;57752;53.574;9.736;2023-11-21T20:58:29;19.10;;;7.68;;
51489;SDS011;57752;53.574;9.736;2023-11-21T21:03:29;17.50;;;6.97;;
51489;SDS011;57752;53.574;9.736;2023-11-21T21:08:29;18.98;;;6.50;;
51489;SDS011;57752;53.574;9.736;2023-11-21T21:13:29;17.17;;;6.40;;
51489;SDS011;57752;53.574;9.736;2023-11-21T21:18:29;15.85;;;5.63;;
51489;SDS011;57752;53.574;9.736;2023-11-21T21:23:30;13.48;;;5.32;;
51489;SDS011;57752;53.574;9.736;2023-11-21T21:28:30;13.68;;;4.93;;
51489;SDS011;57752;53.574;9.736;2023-11-21T21:33:30;14.75;;;5.65;;
51489;SDS011;57752;53.574;9.736;2023-11-21T21:38:31;13.70;;;5.18;;
51489;SDS011;57752;53.574;9.736;2023-11-21T21:43:32;16.53;;;4.93;;
51489;SDS011;57752;53.574;9.736;2023-11-21T21:48:33;12.80;;;5.05;;
51489;SDS011;57752;53.574;9.736;2023-11-21T21:53:33;12.45;;;4.80;;
51489;SDS011;57752;53.574;9.736;2023-11-21T21:58:33;10.73;;;4.43;;
51489;SDS011;57752;53.574;9.736;2023-11-21T22:03:33;12.32;;;4.18;;
51489;SDS011;57752;53.574;9.736;2023-11-21T22:08:33;13.88;;;4.25;;
51489;SDS011;57752;53.574;9.736;2023-11-21T22:13:33;11.93;;;3.97;;
51489;SDS011;57752;53.574;9.736;2023-11-21T22:18:34;14.07;;;4.60;;
51489;SDS011;57752;53.574;9.736;2023-11-21T22:23:34;11.75;;;4.40;;
51489;SDS011;57752;53.574;9.736;2023-11-21T22:28:36;13.77;;;3.67;;
51489;SDS011;57752;53.574;9.736;2023-11-21T22:33:36;12.73;;;4.32;;
51489;SDS011;57752;53.574;9.736;2023-11-21T22:38:36;10.45;;;3.83;;
51489;SDS011;57752;53.574;9.736;2023-11-21T22:43:36;13.35;;;5.40;;
51489;SDS011;57752;53.574;9.736;2023-11-21T22:48:37;14.00;;;4.88;;
51489;SDS011;57752;53.574;9.736;2023-11-21T22:53:38;13.10;;;4.75;;
51489;SDS011;57752;53.574;9.736;2023-11-21T22:58:38;11.98;;;4.22;;
51489;SDS011;57752;53.574;9.736;2023-11-21T23:03:38;13.38;;;4.85;;
51489;SDS011;57752;53.574;9.736;2023-11-21T23:08:38;13.30;;;4.38;;
51489;SDS011;57752;53.574;9.736;2023-11-21T23:13:39;15.93;;;4.82;;
51489;SDS011;57752;53.574;9.736;2023-11-21T23:18:39;12.10;;;4.13;;
51489;SDS011;57752;53.574;9.736;2023-11-21T23:23:39;11.60;;;4.63;;
51489;SDS011;57752;53.574;9.736;2023-11-21T23:28:40;15.40;;;4.75;;
51489;SDS011;57752;53.574;9.736;2023-11-21T23:33:40;12.20;;;4.10;;
51489;SDS011;57752;53.574;9.736;2023-11-21T23:38:41;12.20;;;4.32;;
51489;SDS011;57752;53.574;9.736;2023-11-21T23:43:42;12.32;;;4.72;;
51489;SDS011;57752;53.574;9.736;2023-11-21T23:48:42;12.55;;;4.63;;
51489;SDS011;57752;53.574;9.736;2023-11-21T23:53:42;11.95;;;4.43;;
51489;SDS011;57752;53.574;9.736;2023-11-21T23:58:42;12.00;;;4.45;;
